createdAt,value
2019-05-30T00:01:38.949Z,82.57
2019-05-30T00:04:08.625Z,82.69
2019-05-30T00:06:38.290Z,82.51
2019-05-30T00:09:09.739Z,82.57
2019-05-30T00:11:39.472Z,82.67
2019-05-30T00:14:09.117Z,82.62
2019-05-30T00:16:40.270Z,82.44
2019-05-30T00:19:09.930Z,82.42
2019-05-30T00:21:39.581Z,82.33
2019-05-30T00:24:09.232Z,82.39
2019-05-30T00:26:38.990Z,82.41
2019-05-30T00:29:08.642Z,82.41
2019-05-30T00:31:38.276Z,82.32
2019-05-30T00:34:07.943Z,82.30
2019-05-30T00:36:37.589Z,82.28
2019-05-30T00:39:08.039Z,82.02
2019-05-30T00:41:37.774Z,81.97
2019-05-30T00:44:07.481Z,81.93
2019-05-30T00:46:37.126Z,81.90
2019-05-30T00:49:06.821Z,81.83
2019-05-30T00:51:36.466Z,81.80
2019-05-30T00:54:07.020Z,81.69
2019-05-30T00:56:37.830Z,81.69
2019-05-30T00:59:07.553Z,81.42
2019-05-30T01:01:38.219Z,81.40
2019-05-30T01:04:07.876Z,81.34
2019-05-30T01:06:37.599Z,81.30
2019-05-30T01:09:07.685Z,81.03
2019-05-30T01:11:37.310Z,80.96
2019-05-30T01:14:07.538Z,80.93
2019-05-30T01:16:37.496Z,80.72
2019-05-30T01:19:07.444Z,80.88
2019-05-30T01:21:37.172Z,80.83
2019-05-30T01:24:07.695Z,80.87
2019-05-30T01:26:37.554Z,80.82
2019-05-30T01:29:07.759Z,80.74
2019-05-30T01:31:38.668Z,80.76
2019-05-30T01:34:08.327Z,80.70
2019-05-30T01:36:38.057Z,80.77
2019-05-30T01:39:08.260Z,80.79
2019-05-30T01:41:38.060Z,80.86
2019-05-30T01:44:08.316Z,80.78
2019-05-30T01:46:38.185Z,80.67
2019-05-30T01:49:08.724Z,80.35
2019-05-30T01:51:38.489Z,80.44
2019-05-30T01:54:08.792Z,80.31
2019-05-30T01:56:38.571Z,80.22
2019-05-30T01:59:08.925Z,80.23
2019-05-30T02:01:38.657Z,80.09
2019-05-30T02:04:09.485Z,80.08
2019-05-30T02:06:40.245Z,80.05
2019-05-30T02:09:10.836Z,80.05
2019-05-30T02:11:41.084Z,80.07
2019-05-30T02:14:10.747Z,80.07
2019-05-30T02:16:40.393Z,80.10
2019-05-30T02:19:10.541Z,80.04
2019-05-30T02:21:40.449Z,80.04
2019-05-30T02:24:12.090Z,80.04
2019-05-30T02:26:41.657Z,80.01
2019-05-30T02:29:11.193Z,80.02
2019-05-30T02:31:40.855Z,80.02
2019-05-30T02:34:12.184Z,80.02
2019-05-30T02:36:42.036Z,80.07
2019-05-30T02:39:12.233Z,79.92
2019-05-30T02:41:42.008Z,79.82
2019-05-30T02:44:12.400Z,79.91
2019-05-30T02:46:42.405Z,79.88
2019-05-30T02:49:13.832Z,79.77
2019-05-30T02:51:43.409Z,79.82
2019-05-30T02:54:13.407Z,79.80
2019-05-30T02:56:43.199Z,79.82
2019-05-30T02:59:13.710Z,79.75
2019-05-30T03:01:59.861Z,79.80
2019-05-30T03:04:15.129Z,79.81
2019-05-30T03:06:45.069Z,79.75
2019-05-30T03:09:15.123Z,79.77
2019-05-30T03:11:44.868Z,79.87
2019-05-30T03:14:19.103Z,79.80
2019-05-30T03:16:45.882Z,79.79
2019-05-30T03:19:15.541Z,79.79
2019-05-30T03:21:45.206Z,79.76
2019-05-30T03:24:14.845Z,79.69
2019-05-30T03:26:44.493Z,79.81
2019-05-30T03:29:14.498Z,79.83
2019-05-30T03:31:45.044Z,79.80
2019-05-30T03:34:26.224Z,79.70
2019-05-30T03:36:46.002Z,79.76
2019-05-30T03:39:15.710Z,79.88
2019-05-30T03:41:45.399Z,79.90
2019-05-30T03:44:15.692Z,79.88
2019-05-30T03:46:48.519Z,79.87
2019-05-30T03:49:21.111Z,79.83
2019-05-30T03:51:53.293Z,79.83
2019-05-30T03:54:25.176Z,79.89
2019-05-30T03:57:15.893Z,79.78
2019-05-30T04:00:00.389Z,79.72
2019-05-30T04:02:56.017Z,79.58
2019-05-30T04:05:23.315Z,79.64
2019-05-30T04:07:55.922Z,79.67
2019-05-30T04:10:28.586Z,79.56
2019-05-30T04:13:21.837Z,79.60
2019-05-30T04:15:51.491Z,79.66
2019-05-30T04:18:21.146Z,79.66
2019-05-30T04:20:51.137Z,79.59
2019-05-30T04:23:20.798Z,79.57
2019-05-30T04:25:50.362Z,79.47
2019-05-30T04:28:19.942Z,79.54
2019-05-30T04:30:49.629Z,79.62
2019-05-30T04:33:32.772Z,79.66
2019-05-30T04:35:50.599Z,79.55
2019-05-30T04:38:20.279Z,79.47
2019-05-30T04:40:50.900Z,79.44
2019-05-30T04:43:20.519Z,79.42
2019-05-30T04:45:50.133Z,79.39
2019-05-30T04:48:21.254Z,79.45
2019-05-30T04:50:51.142Z,79.37
2019-05-30T04:53:21.183Z,79.24
2019-05-30T04:55:51.915Z,79.27
2019-05-30T04:58:24.142Z,79.17
2019-05-30T05:00:53.997Z,79.05
2019-05-30T05:03:44.146Z,79.13
2019-05-30T05:05:55.004Z,79.04
2019-05-30T05:08:25.526Z,78.90
2019-05-30T05:10:55.178Z,78.67
2019-05-30T05:13:24.813Z,78.72
2019-05-30T05:15:54.453Z,78.58
2019-05-30T05:18:24.108Z,78.51
2019-05-30T05:20:53.751Z,78.15
2019-05-30T05:23:23.628Z,78.24
2019-05-30T05:26:00.855Z,78.18
2019-05-30T05:28:25.585Z,77.79
2019-05-30T05:30:55.255Z,77.69
2019-05-30T05:33:24.892Z,77.67
2019-05-30T05:35:54.531Z,77.81
2019-05-30T05:38:24.501Z,77.75
2019-05-30T05:40:54.236Z,77.72
2019-05-30T05:43:24.461Z,77.61
2019-05-30T05:45:54.298Z,77.42
2019-05-30T05:48:24.690Z,77.32
2019-05-30T05:50:54.560Z,77.17
2019-05-30T05:53:25.129Z,76.54
2019-05-30T05:55:54.847Z,76.57
2019-05-30T05:58:26.459Z,76.72
2019-05-30T06:00:55.901Z,76.50
2019-05-30T06:03:25.535Z,76.49
2019-05-30T06:05:55.477Z,76.16
2019-05-30T06:08:25.799Z,75.79
2019-05-30T06:10:55.883Z,75.51
2019-05-30T06:13:25.491Z,75.52
2019-05-30T06:15:55.123Z,75.25
2019-05-30T06:18:24.863Z,74.82
2019-05-30T06:20:54.538Z,74.82
2019-05-30T06:23:24.234Z,74.42
2019-05-30T06:25:53.876Z,74.16
2019-05-30T06:28:24.181Z,73.69
2019-05-30T06:30:54.366Z,73.49
2019-05-30T06:33:24.973Z,73.40
2019-05-30T06:35:54.741Z,73.27
2019-05-30T06:38:25.280Z,72.99
2019-05-30T06:40:55.022Z,72.94
2019-05-30T06:43:26.033Z,72.81
2019-05-30T06:45:55.868Z,72.67
2019-05-30T06:48:26.825Z,72.73
2019-05-30T06:50:56.636Z,72.48
2019-05-30T06:53:27.290Z,72.53
2019-05-30T06:55:57.105Z,72.41
2019-05-30T06:58:41.411Z,72.41
2019-05-30T07:00:58.032Z,72.34
2019-05-30T07:03:28.476Z,71.96
2019-05-30T07:05:58.772Z,71.40
2019-05-30T07:08:28.895Z,71.54
2019-05-30T07:10:58.601Z,71.15
2019-05-30T07:13:29.244Z,71.36
2019-05-30T07:15:59.068Z,71.38
2019-05-30T07:18:33.190Z,70.69
2019-05-30T07:21:00.089Z,70.34
2019-05-30T07:23:30.206Z,69.93
2019-05-30T07:26:03.244Z,69.77
2019-05-30T07:28:32.012Z,70.21
2019-05-30T07:31:01.810Z,69.98
2019-05-30T07:33:32.920Z,69.59
2019-05-30T07:36:02.697Z,69.12
2019-05-30T07:38:32.685Z,68.98
2019-05-30T07:41:02.412Z,68.43
2019-05-30T07:43:33.409Z,68.34
2019-05-30T07:46:04.398Z,68.33
2019-05-30T07:48:34.378Z,68.27
2019-05-30T07:51:04.094Z,67.68
2019-05-30T07:53:34.900Z,67.27
2019-05-30T07:56:06.491Z,67.11
2019-05-30T07:58:37.323Z,67.31
2019-05-30T08:01:07.165Z,66.90
2019-05-30T08:03:36.803Z,66.60
2019-05-30T08:06:06.379Z,66.26
2019-05-30T08:08:36.223Z,66.00
2019-05-30T08:11:09.482Z,65.83
2019-05-30T08:13:37.404Z,65.80
2019-05-30T08:16:07.405Z,65.63
2019-05-30T08:18:37.933Z,65.92
2019-05-30T08:21:07.779Z,64.86
2019-05-30T08:23:38.412Z,64.66
2019-05-30T08:26:08.150Z,63.80
2019-05-30T08:28:38.684Z,64.05
2019-05-30T08:31:09.066Z,62.79
2019-05-30T08:33:39.720Z,60.65
2019-05-30T08:36:09.563Z,59.85
2019-05-30T08:38:39.413Z,59.58
2019-05-30T08:41:09.155Z,59.07
2019-05-30T08:43:39.674Z,58.59
2019-05-30T08:46:09.528Z,58.32
2019-05-30T08:48:40.350Z,58.39
2019-05-30T08:51:10.127Z,55.70
2019-05-30T08:53:40.651Z,56.03
2019-05-30T08:56:10.408Z,56.03
2019-05-30T08:58:40.931Z,56.70
2019-05-30T09:01:10.820Z,57.31
2019-05-30T09:03:40.442Z,57.24
2019-05-30T09:06:10.124Z,57.35
2019-05-30T09:08:40.077Z,57.28
2019-05-30T09:11:09.799Z,57.92
2019-05-30T09:13:40.426Z,58.03
2019-05-30T09:16:11.399Z,58.16
2019-05-30T09:18:43.106Z,57.59
2019-05-30T09:21:13.889Z,57.44
2019-05-30T09:23:43.951Z,57.49
2019-05-30T09:26:13.749Z,57.53
2019-05-30T09:28:44.262Z,57.58
2019-05-30T09:31:13.998Z,56.96
2019-05-30T09:33:44.656Z,57.00
2019-05-30T09:36:14.464Z,56.91
2019-05-30T09:38:45.314Z,57.00
2019-05-30T09:41:15.205Z,57.21
2019-05-30T09:43:46.338Z,57.30
2019-05-30T09:46:16.080Z,57.25
2019-05-30T09:48:46.729Z,56.47
2019-05-30T09:51:16.500Z,56.33
2019-05-30T09:53:46.158Z,56.48
2019-05-30T09:56:16.836Z,56.13
2019-05-30T09:58:47.671Z,56.18
2019-05-30T10:01:17.505Z,55.72
2019-05-30T10:03:48.371Z,55.18
2019-05-30T10:06:29.046Z,55.29
2019-05-30T10:08:49.673Z,55.03
2019-05-30T10:11:20.483Z,54.43
2019-05-30T10:13:51.662Z,54.20
2019-05-30T10:16:23.739Z,54.26
2019-05-30T10:18:53.401Z,54.49
2019-05-30T10:21:23.060Z,54.50
2019-05-30T10:23:53.695Z,54.82
2019-05-30T10:26:23.431Z,53.77
2019-05-30T10:28:53.373Z,54.29
2019-05-30T10:31:23.211Z,55.15
2019-05-30T10:33:53.254Z,55.34
2019-05-30T10:36:22.940Z,56.03
2019-05-30T10:38:53.819Z,55.54
2019-05-30T10:41:23.625Z,55.76
2019-05-30T10:43:53.274Z,55.90
2019-05-30T10:46:22.900Z,56.35
2019-05-30T10:48:52.827Z,56.10
2019-05-30T10:51:22.471Z,55.69
2019-05-30T10:53:52.687Z,55.59
2019-05-30T10:56:23.559Z,54.83
2019-05-30T10:58:53.276Z,55.27
2019-05-30T11:01:23.134Z,54.94
2019-05-30T11:03:52.788Z,54.70
2019-05-30T11:06:25.342Z,54.18
2019-05-30T11:08:58.061Z,54.09
2019-05-30T11:11:27.698Z,53.95
2019-05-30T11:13:57.419Z,54.30
2019-05-30T11:16:27.084Z,54.61
2019-05-30T11:18:57.913Z,54.36
2019-05-30T11:21:27.781Z,54.13
2019-05-30T11:23:58.376Z,54.47
2019-05-30T11:26:29.043Z,54.27
2019-05-30T11:28:58.902Z,54.12
2019-05-30T11:31:29.619Z,53.74
2019-05-30T11:33:59.287Z,53.48
2019-05-30T11:36:28.856Z,52.94
2019-05-30T11:38:59.463Z,53.27
2019-05-30T11:41:29.140Z,52.99
2019-05-30T11:44:00.077Z,52.56
2019-05-30T11:46:30.221Z,52.16
2019-05-30T11:49:00.807Z,52.14
2019-05-30T11:51:30.481Z,52.45
2019-05-30T11:54:00.881Z,52.34
2019-05-30T11:56:30.930Z,51.38
2019-05-30T11:59:00.590Z,51.99
2019-05-30T12:01:30.220Z,51.65
2019-05-30T12:04:00.803Z,52.30
2019-05-30T12:06:30.589Z,52.36
2019-05-30T12:09:01.155Z,52.46
2019-05-30T12:11:31.861Z,52.55
2019-05-30T12:14:01.649Z,52.50
2019-05-30T12:16:31.718Z,53.08
2019-05-30T12:19:01.889Z,52.99
2019-05-30T12:21:31.803Z,52.85
2019-05-30T12:24:02.651Z,53.29
2019-05-30T12:26:33.965Z,53.73
2019-05-30T12:29:05.096Z,54.06
2019-05-30T12:31:34.739Z,54.20
2019-05-30T12:34:04.431Z,54.08
2019-05-30T12:36:34.170Z,54.41
2019-05-30T12:39:05.516Z,54.47
2019-05-30T12:41:35.198Z,54.47
2019-05-30T12:44:05.040Z,54.64
2019-05-30T12:46:34.676Z,54.18
2019-05-30T12:49:24.885Z,54.15
2019-05-30T12:51:56.153Z,53.86
2019-05-30T12:54:26.280Z,53.42
2019-05-30T12:56:56.578Z,52.53
2019-05-30T12:59:26.505Z,51.17
2019-05-30T13:01:56.810Z,50.60
2019-05-30T13:04:26.608Z,50.28
2019-05-30T13:06:57.679Z,50.23
2019-05-30T13:09:27.783Z,50.24
2019-05-30T13:11:58.449Z,50.35
2019-05-30T13:14:28.216Z,50.09
2019-05-30T13:17:33.339Z,50.28
2019-05-30T13:20:03.484Z,51.00
2019-05-30T13:22:33.347Z,51.59
2019-05-30T13:25:03.820Z,52.00
2019-05-30T13:27:34.604Z,52.50
2019-05-30T13:30:08.422Z,52.82
2019-05-30T13:32:38.076Z,53.13
2019-05-30T13:35:08.171Z,53.14
2019-05-30T13:37:37.826Z,52.98
2019-05-30T13:40:23.679Z,52.92
2019-05-30T13:42:40.168Z,53.32
2019-05-30T13:45:10.875Z,53.51
2019-05-30T13:47:41.639Z,53.75
2019-05-30T13:50:14.315Z,53.25
2019-05-30T13:52:44.022Z,53.82
2019-05-30T13:55:14.529Z,54.16
2019-05-30T13:57:44.245Z,54.28
2019-05-30T14:00:16.063Z,54.14
2019-05-30T14:02:45.719Z,54.55
2019-05-30T14:05:15.459Z,54.43
2019-05-30T14:07:45.093Z,54.42
2019-05-30T14:10:16.450Z,54.14
2019-05-30T14:12:47.345Z,53.80
2019-05-30T14:15:17.380Z,53.19
2019-05-30T14:17:47.114Z,53.04
2019-05-30T14:20:17.447Z,53.71
2019-05-30T14:22:47.209Z,53.93
2019-05-30T14:25:19.475Z,53.94
2019-05-30T14:27:49.139Z,54.02
2019-05-30T14:30:19.494Z,53.58
2019-05-30T14:32:49.155Z,53.01
2019-05-30T14:35:19.080Z,53.26
2019-05-30T14:37:48.715Z,53.67
2019-05-30T14:40:18.775Z,53.59
2019-05-30T14:42:48.409Z,53.82
2019-05-30T14:45:18.677Z,54.41
2019-05-30T14:47:48.317Z,55.68
2019-05-30T14:50:18.286Z,56.62
2019-05-30T14:52:48.270Z,57.15
2019-05-30T14:55:18.334Z,56.28
2019-05-30T14:57:50.103Z,55.54
2019-05-30T15:00:20.561Z,55.29
2019-05-30T15:02:50.224Z,55.32
2019-05-30T15:05:19.860Z,54.81
2019-05-30T15:07:49.518Z,54.22
2019-05-30T15:10:20.201Z,54.05
2019-05-30T15:12:49.860Z,53.90
2019-05-30T15:15:20.078Z,53.73
2019-05-30T15:17:49.806Z,53.81
2019-05-30T15:20:20.262Z,53.77
2019-05-30T15:22:49.875Z,53.66
2019-05-30T15:25:19.649Z,53.86
2019-05-30T15:27:49.279Z,54.09
2019-05-30T15:30:19.126Z,54.03
2019-05-30T15:35:43.627Z,53.55
2019-05-30T15:38:13.285Z,53.32
2019-05-30T15:40:42.916Z,53.25
2019-05-30T15:43:13.438Z,53.40
2019-05-30T15:45:43.214Z,53.82
2019-05-30T15:48:14.187Z,54.14
2019-05-30T15:50:44.066Z,54.15
2019-05-30T15:53:14.878Z,54.10
2019-05-30T15:55:44.874Z,54.35
2019-05-30T15:58:15.742Z,54.52
2019-05-30T16:00:46.518Z,54.57
2019-05-30T16:03:16.534Z,54.65
2019-05-30T16:05:46.308Z,54.55
2019-05-30T16:08:16.772Z,53.81
2019-05-30T16:10:46.542Z,53.86
2019-05-30T16:13:17.700Z,54.22
2019-05-30T16:15:47.378Z,54.42
2019-05-30T16:18:17.747Z,54.61
2019-05-30T16:20:47.470Z,54.97
2019-05-30T16:23:18.702Z,54.83
2019-05-30T16:25:48.579Z,54.71
2019-05-30T16:28:18.391Z,54.67
2019-05-30T16:30:48.594Z,55.01
2019-05-30T16:33:18.257Z,55.11
2019-05-30T16:35:47.961Z,54.84
2019-05-30T16:38:18.081Z,54.91
2019-05-30T16:40:47.759Z,54.96
2019-05-30T16:43:18.195Z,54.73
2019-05-30T16:45:47.934Z,54.60
2019-05-30T16:48:18.371Z,54.35
2019-05-30T16:50:49.130Z,54.73
2019-05-30T16:53:19.087Z,54.70
2019-05-30T16:55:50.195Z,54.78
2019-05-30T16:58:20.428Z,54.93
2019-05-30T17:00:51.224Z,55.12
2019-05-30T17:03:21.924Z,55.12
2019-05-30T17:05:52.322Z,55.03
2019-05-30T17:08:24.493Z,55.03
2019-05-30T17:10:54.227Z,54.98
2019-05-30T17:13:23.962Z,54.86
2019-05-30T17:15:53.600Z,54.47
2019-05-30T17:18:24.405Z,54.00
2019-05-30T17:20:54.005Z,53.76
2019-05-30T17:23:24.820Z,53.69
2019-05-30T17:25:54.504Z,53.52
2019-05-30T17:28:24.462Z,53.11
2019-05-30T17:30:54.254Z,53.14
2019-05-30T17:33:25.165Z,53.36
2019-05-30T17:35:55.285Z,53.42
2019-05-30T17:38:24.941Z,53.72
2019-05-30T17:40:54.580Z,53.87
2019-05-30T17:43:25.035Z,54.02
2019-05-30T17:45:54.842Z,54.28
2019-05-30T17:48:25.568Z,54.58
2019-05-30T17:50:55.258Z,54.79
2019-05-30T17:53:25.948Z,55.09
2019-05-30T17:55:55.727Z,55.12
2019-05-30T17:58:25.977Z,55.18
2019-05-30T18:00:57.163Z,55.40
2019-05-30T18:03:28.432Z,55.56
2019-05-30T18:05:58.194Z,55.49
2019-05-30T18:08:28.926Z,55.85
2019-05-30T18:10:58.672Z,55.73
2019-05-30T18:13:29.240Z,56.03
2019-05-30T18:15:59.148Z,56.43
2019-05-30T18:18:29.314Z,56.88
2019-05-30T18:20:59.034Z,57.72
2019-05-30T18:23:29.682Z,58.21
2019-05-30T18:25:59.547Z,58.37
2019-05-30T18:28:29.870Z,58.38
2019-05-30T18:30:59.632Z,58.79
2019-05-30T18:33:30.295Z,59.20
2019-05-30T18:36:00.031Z,59.59
2019-05-30T18:38:30.459Z,59.70
2019-05-30T18:41:11.035Z,60.09
2019-05-30T18:43:31.640Z,60.42
2019-05-30T18:46:01.292Z,60.57
2019-05-30T18:48:31.495Z,60.72
2019-05-30T18:51:01.367Z,60.86
2019-05-30T18:53:31.020Z,60.98
2019-05-30T18:56:00.675Z,60.83
2019-05-30T18:58:31.197Z,60.71
2019-05-30T19:01:00.977Z,60.70
2019-05-30T19:03:31.351Z,60.73
2019-05-30T19:06:01.448Z,60.82
2019-05-30T19:08:32.021Z,61.03
2019-05-30T19:11:01.767Z,61.24
2019-05-30T19:13:31.428Z,61.82
2019-05-30T19:16:01.075Z,61.93
2019-05-30T19:18:31.595Z,62.08
2019-05-30T19:21:01.393Z,62.35
2019-05-30T19:23:32.049Z,62.63
2019-05-30T19:26:01.786Z,62.73
2019-05-30T19:28:32.488Z,62.99
2019-05-30T19:31:02.290Z,62.96
2019-05-30T19:33:32.970Z,63.04
2019-05-30T19:36:02.708Z,63.08
2019-05-30T19:38:33.349Z,63.26
2019-05-30T19:41:03.064Z,63.36
2019-05-30T19:43:33.845Z,63.48
2019-05-30T19:46:03.451Z,63.59
2019-05-30T19:48:34.303Z,63.65
2019-05-30T19:51:04.181Z,63.73
2019-05-30T19:53:34.938Z,63.73
2019-05-30T19:56:04.856Z,63.88
2019-05-30T19:58:35.616Z,64.17
2019-05-30T20:01:05.501Z,64.40
2019-05-30T20:03:41.597Z,64.34
2019-05-30T20:06:06.573Z,64.16
2019-05-30T20:08:53.489Z,63.87
2019-05-30T20:11:07.691Z,63.80
2019-05-30T20:13:37.412Z,63.56
2019-05-30T20:16:07.052Z,63.54
2019-05-30T20:18:37.668Z,63.66
2019-05-30T20:21:07.419Z,63.96
2019-05-30T20:23:51.735Z,64.26
2019-05-30T20:26:08.547Z,64.30
2019-05-30T20:28:38.790Z,64.28
2019-05-30T20:31:08.567Z,64.22
2019-05-30T20:33:38.441Z,64.27
2019-05-30T20:36:08.144Z,64.18
2019-05-30T20:38:38.659Z,63.97
2019-05-30T20:41:08.459Z,63.89
2019-05-30T20:43:38.963Z,63.96
2019-05-30T20:46:22.327Z,64.00
2019-05-30T20:48:43.249Z,64.10
2019-05-30T20:51:21.274Z,64.24
2019-05-30T20:53:44.707Z,64.25
2019-05-30T20:56:14.389Z,64.45
2019-05-30T20:58:44.033Z,64.52
2019-05-30T21:01:13.697Z,64.55
2019-05-30T21:03:44.528Z,64.76
2019-05-30T21:06:14.196Z,64.87
2019-05-30T21:08:45.237Z,64.99
2019-05-30T21:11:15.400Z,65.01
2019-05-30T21:13:47.025Z,65.23
2019-05-30T21:16:18.327Z,65.31
2019-05-30T21:18:47.980Z,65.26
2019-05-30T21:21:17.669Z,65.38
2019-05-30T21:23:47.363Z,65.27
2019-05-30T21:26:16.937Z,65.33
2019-05-30T21:28:47.340Z,65.43
2019-05-30T21:31:18.185Z,65.37
2019-05-30T21:33:49.144Z,65.62
2019-05-30T21:36:18.936Z,65.61
2019-05-30T21:38:48.575Z,65.65
2019-05-30T21:41:18.366Z,65.83
2019-05-30T21:43:49.002Z,65.99
2019-05-30T21:46:18.738Z,65.99
2019-05-30T21:48:49.489Z,66.02
2019-05-30T21:51:19.125Z,66.16
2019-05-30T21:53:49.727Z,66.34
2019-05-30T21:56:19.427Z,66.50
2019-05-30T21:58:50.466Z,66.71
2019-05-30T22:01:23.190Z,66.89
2019-05-30T22:03:52.834Z,67.14
2019-05-30T22:06:22.569Z,67.33
2019-05-30T22:08:52.236Z,67.25
2019-05-30T22:11:21.947Z,67.26
2019-05-30T22:13:52.059Z,67.39
2019-05-30T22:16:21.849Z,67.64
2019-05-30T22:18:52.256Z,67.71
2019-05-30T22:21:22.367Z,68.00
2019-05-30T22:23:52.522Z,68.09
2019-05-30T22:26:22.263Z,68.66
2019-05-30T22:28:52.730Z,68.98
2019-05-30T22:31:23.498Z,68.96
2019-05-30T22:33:53.376Z,69.10
2019-05-30T22:36:23.087Z,69.14
2019-05-30T22:38:53.193Z,69.16
2019-05-30T22:41:23.155Z,69.35
2019-05-30T22:43:53.021Z,69.54
2019-05-30T22:46:22.829Z,69.88
2019-05-30T22:48:52.950Z,70.04
2019-05-30T22:51:22.798Z,70.01
2019-05-30T22:53:53.279Z,70.17
2019-05-30T22:56:23.078Z,70.16
2019-05-30T22:58:53.832Z,70.46
2019-05-30T23:01:23.568Z,70.53
2019-05-30T23:03:54.004Z,70.89
2019-05-30T23:06:23.829Z,71.08
2019-05-30T23:08:54.724Z,71.06
2019-05-30T23:11:25.758Z,71.28
2019-05-30T23:13:56.415Z,71.52
2019-05-30T23:16:26.128Z,71.77
2019-05-30T23:18:56.879Z,71.76
2019-05-30T23:21:27.632Z,71.80
2019-05-30T23:23:57.404Z,71.85
2019-05-30T23:26:27.009Z,71.72
2019-05-30T23:28:57.914Z,71.71
2019-05-30T23:31:28.698Z,71.77
2019-05-30T23:33:58.628Z,72.02
2019-05-30T23:36:28.485Z,71.98
2019-05-30T23:38:58.945Z,71.96
2019-05-30T23:41:28.680Z,71.90
2019-05-30T23:44:10.667Z,71.95
2019-05-30T23:46:29.682Z,72.04
2019-05-30T23:48:59.831Z,72.28
2019-05-30T23:51:29.602Z,72.66
2019-05-30T23:54:00.524Z,73.12
2019-05-30T23:56:30.297Z,73.34
2019-05-30T23:59:01.457Z,73.67
